createdAt,value
2022-08-01T00:00:56.293Z,99.90
2022-08-01T00:05:01.023Z,99.90
2022-08-01T00:09:03.948Z,99.90
2022-08-01T00:13:06.817Z,99.90
2022-08-01T00:17:09.796Z,99.90
2022-08-01T00:21:13.905Z,99.90
2022-08-01T00:25:16.812Z,99.90
2022-08-01T00:30:10.036Z,99.90
2022-08-01T00:33:42.388Z,99.90
2022-08-01T00:37:46.511Z,99.90
2022-08-01T00:41:49.325Z,99.90
2022-08-01T00:46:02.805Z,99.90
2022-08-01T00:50:06.712Z,99.90
2022-08-01T00:54:10.988Z,99.90
2022-08-01T00:58:16.444Z,99.90
2022-08-01T01:02:20.701Z,99.90
2022-08-01T01:06:31.838Z,99.90
2022-08-01T01:10:42.813Z,99.90
2022-08-01T01:14:53.100Z,99.90
2022-08-01T01:18:59.035Z,99.90
2022-08-01T01:23:26.153Z,99.90
2022-08-01T01:27:41.635Z,99.90
2022-08-01T01:31:50.424Z,99.90
2022-08-01T01:35:55.649Z,99.90
2022-08-01T01:39:59.813Z,99.90
2022-08-01T01:44:03.736Z,99.90
2022-08-01T01:48:09.568Z,99.90
2022-08-01T01:52:15.178Z,99.90
2022-08-01T01:56:19.674Z,99.90
2022-08-01T02:00:23.275Z,99.90
2022-08-01T02:04:28.984Z,99.90
2022-08-01T02:08:33.035Z,99.90
2022-08-01T02:12:39.937Z,99.90
2022-08-01T02:16:44.955Z,99.90
2022-08-01T02:20:53.097Z,99.90
2022-08-01T02:25:01.352Z,99.90
2022-08-01T02:29:08.633Z,99.90
2022-08-01T02:33:18.193Z,99.90
2022-08-01T02:37:23.609Z,99.90
2022-08-01T02:41:28.968Z,99.90
2022-08-01T02:45:33.335Z,99.90
2022-08-01T02:49:41.248Z,99.90
2022-08-01T02:53:47.054Z,99.90
2022-08-01T02:57:56.757Z,99.90
2022-08-01T03:02:05.790Z,99.90
2022-08-01T03:06:09.489Z,99.90
2022-08-01T03:10:15.250Z,99.90
2022-08-01T03:14:20.046Z,99.90
2022-08-01T03:18:25.739Z,99.90
2022-08-01T03:22:31.093Z,99.90
2022-08-01T03:26:38.454Z,99.90
2022-08-01T03:30:42.718Z,99.90
2022-08-01T03:34:45.751Z,99.90
2022-08-01T03:38:51.471Z,99.90
2022-08-01T03:43:02.328Z,99.90
2022-08-01T03:47:09.491Z,99.90
2022-08-01T03:51:13.987Z,99.90
2022-08-01T03:55:18.812Z,99.90
2022-08-01T03:59:23.676Z,99.90
2022-08-01T04:03:27.081Z,99.90
2022-08-01T04:07:31.823Z,99.90
2022-08-01T04:11:35.337Z,99.90
2022-08-01T04:15:39.424Z,99.90
2022-08-01T04:19:42.298Z,99.90
2022-08-01T04:23:46.535Z,99.90
2022-08-01T04:27:52.728Z,99.90
2022-08-01T04:31:58.981Z,99.90
2022-08-01T04:36:04.973Z,99.90
2022-08-01T04:40:10.850Z,99.90
2022-08-01T04:44:14.321Z,99.90
2022-08-01T04:48:22.849Z,99.90
2022-08-01T04:52:34.096Z,99.90
2022-08-01T04:56:37.304Z,99.90
2022-08-01T05:00:40.165Z,99.90
2022-08-01T05:04:45.411Z,99.90
2022-08-01T05:08:48.213Z,99.90
2022-08-01T05:12:51.564Z,99.90
2022-08-01T05:16:54.661Z,99.90
2022-08-01T05:20:58.723Z,99.90
2022-08-01T05:25:01.618Z,99.90
2022-08-01T05:29:05.053Z,99.90
2022-08-01T05:33:07.786Z,99.90
2022-08-01T05:37:12.255Z,99.90
2022-08-01T05:41:15.115Z,99.90
2022-08-01T05:45:17.865Z,99.90
2022-08-01T05:49:20.930Z,99.90
2022-08-01T05:53:25.146Z,99.90
2022-08-01T05:57:27.945Z,99.90
2022-08-01T06:01:30.755Z,99.90
2022-08-01T06:05:33.502Z,99.90
2022-08-01T06:09:37.724Z,99.90
2022-08-01T06:13:45.606Z,99.90
2022-08-01T06:17:51.709Z,99.90
2022-08-01T06:21:54.519Z,99.90
2022-08-01T06:25:59.017Z,99.90
2022-08-01T06:30:01.873Z,99.90
2022-08-01T06:34:04.698Z,99.90
2022-08-01T06:38:07.483Z,99.90
2022-08-01T06:42:11.544Z,99.90
2022-08-01T06:46:14.352Z,99.90
2022-08-01T06:50:17.100Z,99.90
2022-08-01T06:54:19.873Z,99.90
2022-08-01T06:58:31.546Z,99.90
2022-08-01T07:02:34.573Z,99.90
2022-08-01T07:06:40.118Z,99.90
2022-08-01T07:10:44.147Z,99.90
2022-08-01T07:14:48.321Z,99.90
2022-08-01T07:18:51.054Z,99.90
2022-08-01T07:22:54.132Z,99.90
2022-08-01T07:26:59.829Z,99.90
2022-08-01T07:31:30.567Z,99.90
2022-08-01T07:35:43.875Z,99.90
2022-08-01T07:39:47.431Z,99.90
2022-08-01T07:43:57.338Z,99.90
2022-08-01T07:48:08.217Z,99.90
2022-08-01T07:52:12.332Z,99.90
2022-08-01T07:56:16.193Z,99.90
2022-08-01T08:00:19.750Z,99.90
2022-08-01T08:04:24.310Z,99.90
2022-08-01T08:08:27.355Z,99.90
2022-08-01T08:12:30.157Z,99.90
2022-08-01T08:16:32.918Z,99.90
2022-08-01T08:20:37.084Z,99.90
2022-08-01T08:24:46.556Z,99.90
2022-08-01T08:28:49.677Z,99.90
2022-08-01T08:32:52.472Z,99.90
2022-08-01T08:36:58.947Z,99.90
2022-08-01T08:41:01.995Z,99.90
2022-08-01T08:45:05.208Z,99.90
2022-08-01T08:49:21.212Z,99.90
2022-08-01T08:53:25.647Z,99.90
2022-08-01T08:57:40.318Z,99.90
2022-08-01T09:01:44.286Z,99.90
2022-08-01T09:05:50.522Z,99.80
2022-08-01T09:09:55.072Z,99.50
2022-08-01T09:14:05.912Z,99.50
2022-08-01T09:18:08.977Z,99.10
2022-08-01T09:22:14.256Z,98.50
2022-08-01T09:26:20.425Z,97.90
2022-08-01T09:30:26.223Z,97.90
2022-08-01T09:34:31.298Z,97.60
2022-08-01T09:38:34.118Z,97.00
2022-08-01T09:42:38.589Z,96.90
2022-08-01T09:46:52.508Z,97.00
2022-08-01T09:51:03.787Z,96.40
2022-08-01T09:55:24.199Z,96.30
2022-08-01T09:59:57.975Z,95.50
2022-08-01T10:04:17.485Z,94.30
2022-08-01T10:08:23.443Z,94.10
2022-08-01T10:12:34.314Z,93.90
2022-08-01T10:16:38.882Z,93.30
2022-08-01T10:20:43.742Z,93.10
2022-08-01T10:24:56.026Z,93.10
2022-08-01T10:28:59.119Z,93.10
2022-08-01T10:33:05.760Z,93.30
2022-08-01T10:37:12.452Z,93.30
2022-08-01T10:41:17.428Z,93.00
2022-08-01T10:45:20.673Z,93.40
2022-08-01T10:49:29.271Z,93.90
2022-08-01T10:53:49.887Z,93.90
2022-08-01T10:57:53.243Z,94.20
2022-08-01T11:02:00.412Z,94.10
2022-08-01T11:06:06.338Z,93.90
2022-08-01T11:10:18.895Z,93.70
2022-08-01T11:14:53.671Z,93.90
2022-08-01T11:18:52.766Z,93.90
2022-08-01T11:23:28.531Z,94.90
2022-08-01T11:27:33.669Z,95.60
2022-08-01T11:31:37.813Z,96.20
2022-08-01T11:36:17.322Z,96.80
2022-08-01T11:40:25.050Z,97.40
2022-08-01T11:44:30.119Z,97.90
2022-08-01T11:48:33.195Z,97.90
2022-08-01T11:52:37.072Z,97.90
2022-08-01T11:56:44.817Z,98.20
2022-08-01T12:00:54.203Z,98.40
2022-08-01T12:04:59.676Z,98.10
2022-08-01T12:09:20.887Z,97.60
2022-08-01T12:13:25.033Z,97.30
2022-08-01T12:17:35.697Z,97.00
2022-08-01T12:21:40.276Z,97.20
2022-08-01T12:25:44.717Z,95.80
2022-08-01T12:29:49.087Z,96.10
2022-08-01T12:33:51.891Z,95.10
2022-08-01T12:37:56.271Z,94.90
2022-08-01T12:41:59.692Z,94.70
2022-08-01T12:46:05.073Z,95.40
2022-08-01T12:50:10.465Z,95.10
2022-08-01T12:54:13.305Z,95.40
2022-08-01T12:58:18.097Z,94.30
2022-08-01T13:02:33.038Z,94.10
2022-08-01T13:06:36.952Z,94.30
2022-08-01T13:10:39.917Z,94.00
2022-08-01T13:14:42.695Z,93.60
2022-08-01T13:18:52.796Z,94.70
2022-08-01T13:22:55.866Z,94.50
2022-08-01T13:27:02.093Z,93.30
2022-08-01T13:31:07.912Z,93.20
2022-08-01T13:35:14.283Z,92.20
2022-08-01T13:39:35.050Z,92.00
2022-08-01T13:43:58.657Z,91.60
2022-08-01T13:48:12.268Z,91.30
2022-08-01T13:52:17.367Z,91.10
2022-08-01T13:56:22.656Z,90.90
2022-08-01T14:00:25.638Z,90.80
2022-08-01T14:04:29.099Z,90.80
2022-08-01T14:08:37.526Z,90.60
2022-08-01T14:12:40.513Z,90.70
2022-08-01T14:16:45.809Z,90.40
2022-08-01T14:20:48.737Z,89.80
2022-08-01T14:24:59.501Z,89.30
2022-08-01T14:29:04.660Z,90.60
2022-08-01T14:33:07.552Z,90.20
2022-08-01T14:37:10.668Z,88.40
2022-08-01T14:41:15.968Z,87.70
2022-08-01T14:45:18.806Z,86.70
2022-08-01T14:49:21.977Z,84.70
2022-08-01T14:53:24.983Z,83.90
2022-08-01T14:57:29.162Z,84.30
2022-08-01T15:01:32.018Z,83.20
2022-08-01T15:05:34.913Z,82.30
2022-08-01T15:09:37.922Z,81.90
2022-08-01T15:13:42.954Z,80.80
2022-08-01T15:17:46.008Z,80.30
2022-08-01T15:21:48.887Z,78.20
2022-08-01T15:25:52.061Z,76.40
2022-08-01T15:29:57.129Z,74.00
2022-08-01T15:34:01.813Z,73.70
2022-08-01T15:38:06.555Z,72.90
2022-08-01T15:42:11.651Z,73.90
2022-08-01T15:46:15.756Z,73.50
2022-08-01T15:50:18.643Z,72.80
2022-08-01T15:54:21.809Z,73.30
2022-08-01T15:58:24.877Z,72.70
2022-08-01T16:02:29.246Z,70.30
2022-08-01T16:06:32.932Z,68.80
2022-08-01T16:10:35.858Z,67.40
2022-08-01T16:14:38.645Z,67.60
2022-08-01T16:18:42.811Z,67.20
2022-08-01T16:22:45.614Z,67.30
2022-08-01T16:26:48.398Z,66.00
2022-08-01T16:31:09.679Z,68.10
2022-08-01T16:35:15.461Z,66.20
2022-08-01T16:39:23.061Z,65.00
2022-08-01T16:43:26.434Z,66.00
2022-08-01T16:47:29.224Z,65.60
2022-08-01T16:51:34.143Z,65.20
2022-08-01T16:55:49.418Z,63.40
2022-08-01T16:59:53.677Z,63.70
2022-08-01T17:03:59.531Z,62.10
2022-08-01T17:08:06.223Z,63.00
2022-08-01T17:12:10.610Z,65.80
2022-08-01T17:16:13.800Z,67.70
2022-08-01T17:20:16.586Z,66.50
2022-08-01T17:24:21.791Z,69.10
2022-08-01T17:28:26.089Z,70.60
2022-08-01T17:32:28.956Z,70.50
2022-08-01T17:36:31.866Z,71.20
2022-08-01T17:40:40.803Z,73.30
2022-08-01T17:44:49.057Z,74.80
2022-08-01T17:48:54.915Z,74.20
2022-08-01T17:52:57.813Z,75.20
2022-08-01T17:57:01.951Z,74.80
2022-08-01T18:01:04.991Z,76.10
2022-08-01T18:05:10.750Z,77.20
2022-08-01T18:09:13.757Z,78.30
2022-08-01T18:13:18.329Z,78.60
2022-08-01T18:17:23.439Z,79.20
2022-08-01T18:21:26.381Z,79.20
2022-08-01T18:25:30.346Z,79.80
2022-08-01T18:29:47.845Z,79.60
2022-08-01T18:33:51.341Z,80.20
2022-08-01T18:37:55.404Z,80.30
2022-08-01T18:42:00.091Z,80.30
2022-08-01T18:46:06.286Z,81.00
2022-08-01T18:50:10.508Z,81.20
2022-08-01T18:54:13.865Z,81.60
2022-08-01T18:58:16.874Z,82.10
2022-08-01T19:02:21.119Z,82.70
2022-08-01T19:06:24.679Z,83.10
2022-08-01T19:10:27.519Z,83.00
2022-08-01T19:14:30.555Z,83.30
2022-08-01T19:18:35.038Z,83.60
2022-08-01T19:22:38.681Z,84.50
2022-08-01T19:26:46.966Z,86.10
2022-08-01T19:30:53.451Z,86.40
2022-08-01T19:35:04.840Z,86.90
2022-08-01T19:39:10.034Z,88.20
2022-08-01T19:43:13.708Z,89.20
2022-08-01T19:47:21.525Z,89.20
2022-08-01T19:51:33.333Z,89.90
2022-08-01T19:55:40.606Z,90.10
2022-08-01T20:00:06.295Z,90.80
2022-08-01T20:04:10.137Z,90.80
2022-08-01T20:08:16.493Z,91.30
2022-08-01T20:12:21.931Z,91.80
2022-08-01T20:16:25.107Z,92.00
2022-08-01T20:20:28.725Z,92.00
2022-08-01T20:24:38.105Z,92.40
2022-08-01T20:28:50.589Z,92.60
2022-08-01T20:32:54.605Z,92.70
2022-08-01T20:37:06.741Z,92.70
2022-08-01T20:41:11.808Z,92.70
2022-08-01T20:45:18.715Z,92.80
2022-08-01T20:49:23.331Z,93.20
2022-08-01T20:53:26.318Z,93.20
2022-08-01T20:57:32.301Z,93.30
2022-08-01T21:01:40.054Z,93.40
2022-08-01T21:05:55.661Z,93.60
2022-08-01T21:10:05.907Z,93.70
2022-08-01T21:14:13.246Z,93.60
2022-08-01T21:18:19.917Z,94.00
2022-08-01T21:22:29.738Z,94.00
2022-08-01T21:26:35.747Z,93.90
2022-08-01T21:30:55.491Z,93.80
2022-08-01T21:35:01.363Z,94.00
2022-08-01T21:39:05.815Z,94.20
2022-08-01T21:43:12.945Z,94.50
2022-08-01T21:47:19.605Z,94.60
2022-08-01T21:51:35.326Z,94.80
2022-08-01T21:55:51.819Z,95.00
2022-08-01T22:00:06.446Z,95.30
2022-08-01T22:04:16.037Z,95.70
2022-08-01T22:08:24.804Z,95.50
2022-08-01T22:12:28.279Z,95.70
2022-08-01T22:16:33.251Z,95.90
2022-08-01T22:20:37.930Z,95.80
2022-08-01T22:24:41.947Z,96.10
2022-08-01T22:28:45.729Z,96.40
2022-08-01T22:33:07.112Z,96.40
2022-08-01T22:37:14.782Z,96.40
2022-08-01T22:41:20.038Z,96.30
2022-08-01T22:45:26.736Z,96.40
2022-08-01T22:49:35.777Z,96.70
2022-08-01T22:53:51.325Z,96.50
2022-08-01T22:57:59.261Z,96.40
2022-08-01T23:02:03.918Z,96.40
2022-08-01T23:06:12.319Z,96.60
2022-08-01T23:10:22.031Z,96.80
2022-08-01T23:14:25.437Z,96.80
2022-08-01T23:18:29.841Z,97.00
2022-08-01T23:22:34.214Z,97.10
2022-08-01T23:26:38.937Z,97.10
2022-08-01T23:30:41.876Z,97.20
2022-08-01T23:34:45.805Z,97.20
2022-08-01T23:38:48.765Z,97.20
2022-08-01T23:42:53.487Z,97.30
2022-08-01T23:46:56.244Z,97.50
2022-08-01T23:50:59.024Z,97.90
2022-08-01T23:55:11.566Z,97.90
2022-08-01T23:59:19.175Z,97.70
